Time;durP1;ratioP1;P1;durP2;ratioP2;P2;SDS_P1;SDS_P2;PMS_P1;PMS_P2;Temp;Humidity;BMP_temperature;BMP_pressure;BME280_temperature;BME280_humidity;BME280_pressure;Samples;Min_cycle;Max_cycle;Signal;HPM_P1;HPM_P2
2023/05/01 00:02:03;;;;;;;;;;;;;;;;;;5054217;28;19995;-56
2023/05/01 00:04:29;;;;;;;;;;;;;;;;;;5041553;28;19944;-57
2023/05/01 00:06:55;;;;;;;;;;;;;;;;;;5033845;28;20273;-56
2023/05/01 00:09:20;;;;;;;;;;;;;;;;;;5040345;28;19952;-57
2023/05/01 00:11:46;;;;;;;;;;;;;;;;;;5053413;28;19916;-57
2023/05/01 00:14:12;;;;;;;;;;;;;;;;;;5052571;28;19952;-56
2023/05/01 00:16:38;;;;;;;;;;;;;;;;;;5053337;28;19971;-57
2023/05/01 00:19:04;;;;;;;;;;;;;;;;;;5052838;28;20008;-56
2023/05/01 00:21:30;;;;;;;;;;;;;;;;;;5050143;28;20006;-57
2023/05/01 00:23:56;;;;;;;;;;;;;;;;;;5051175;28;19999;-58
2023/05/01 00:26:25;;;;;;;;;;;;;;;;;;5050906;28;19912;-57
2023/05/01 00:28:51;;;;;;;;;;;;;;;;;;5046683;28;19928;-58
2023/05/01 00:31:17;;;;;;;;;;;;;;;;;;5048015;28;19917;-56
2023/05/01 00:33:43;;;;;;;;;;;;;;;;;;5053248;28;19917;-59
2023/05/01 00:36:09;;;;;;;;;;;;;;;;;;5039377;28;20010;-56
2023/05/01 00:38:35;;;;;;;;;;;;;;;;;;5053525;28;20368;-57
2023/05/01 00:41:01;;;;;;;;;;;;;;;;;;5039595;28;19947;-57
2023/05/01 00:43:27;;;;;;;;;;;;;;;;;;5050051;28;19943;-57
2023/05/01 00:45:53;;;;;;;;;;;;;;;;;;5051566;28;19979;-56
2023/05/01 00:48:18;;;;;;;;;;;;;;;;;;5051933;28;20377;-57
2023/05/01 00:50:44;;;;;;;;;;;;;;;;;;5050988;28;19956;-56
2023/05/01 00:53:11;;;;;;;;;;;;;;;;;;5040134;28;19913;-57
2023/05/01 00:55:37;;;;;;;;;;;;;;;;;;5050826;28;20011;-57
2023/05/01 00:58:02;;;;;;;;;;;;;;;;;;5043884;28;20028;-56
2023/05/01 01:00:28;;;;;;;;;;;;;;;;;;5056739;28;19928;-60
2023/05/01 01:02:54;;;;;;;;;;;;;;;;;;5046287;28;19921;-62
2023/05/01 01:05:20;;;;;;;;;;;;;;;;;;5032742;28;20650;-61
2023/05/01 01:07:46;;;;;;;;;;;;;;;;;;5052846;28;19970;-62
2023/05/01 01:10:12;;;;;;;;;;;;;;;;;;5052381;28;19913;-61
2023/05/01 01:12:38;;;;;;;;;;;;;;;;;;5051903;28;19925;-60
2023/05/01 01:15:04;;;;;;;;;;;;;;;;;;5052141;28;19913;-60
2023/05/01 01:17:30;;;;;;;;;;;;;;;;;;5052518;28;19974;-60
2023/05/01 01:19:56;;;;;;;;;;;;;;;;;;5050415;28;19913;-62
2023/05/01 01:22:22;;;;;;;;;;;;;;;;;;5052193;28;20422;-63
2023/05/01 01:24:48;;;;;;;;;;;;;;;;;;5052488;28;19909;-63
2023/05/01 01:27:14;;;;;;;;;;;;;;;;;;5050478;28;19963;-62
2023/05/01 01:29:40;;;;;;;;;;;;;;;;;;5048907;28;19927;-62
2023/05/01 01:32:06;;;;;;;;;;;;;;;;;;5046616;28;19920;-62
2023/05/01 01:34:32;;;;;;;;;;;;;;;;;;5049265;28;19913;-63
2023/05/01 01:36:58;;;;;;;;;;;;;;;;;;5051421;28;19948;-60
2023/05/01 01:39:24;;;;;;;;;;;;;;;;;;5050634;28;19909;-62
2023/05/01 01:41:51;;;;;;;;;;;;;;;;;;5049123;28;19917;-61
2023/05/01 01:44:19;;;;;;;;;;;;;;;;;;5050162;28;19995;-61
2023/05/01 01:46:45;;;;;;;;;;;;;;;;;;5045394;28;20424;-63
2023/05/01 01:49:11;;;;;;;;;;;;;;;;;;5045520;28;20000;-60
2023/05/01 01:51:37;;;;;;;;;;;;;;;;;;5036175;28;19923;-62
2023/05/01 01:54:03;;;;;;;;;;;;;;;;;;5033099;28;19909;-61
2023/05/01 01:56:29;;;;;;;;;;;;;;;;;;5043894;28;19913;-61
2023/05/01 01:58:55;;;;;;;;;;;;;;;;;;5044976;28;20391;-63
2023/05/01 02:01:21;;;;;;;;;;;;;;;;;;5046381;28;19999;-61
2023/05/01 02:03:47;;;;;;;;;;;;;;;;;;5047719;28;19999;-62
2023/05/01 02:06:13;;;;;;;;;;;;;;;;;;5048642;28;19947;-60
2023/05/01 02:08:38;;;;;;;;;;;;;;;;;;5055672;28;19967;-61
2023/05/01 02:11:04;;;;;;;;;;;;;;;;;;5046310;28;20028;-63
2023/05/01 02:13:31;;;;;;;;;;;;;;;;;;5041853;28;19924;-61
2023/05/01 02:15:56;;;;;;;;;;;;;;;;;;5050763;28;19917;-62
2023/05/01 02:18:23;;;;;;;;;;;;;;;;;;5050537;28;19923;-61
2023/05/01 02:20:49;;;;;;;;;;;;;;;;;;5049902;28;20266;-62
2023/05/01 02:23:15;;;;;;;;;;;;;;;;;;5060057;28;20265;-61
2023/05/01 02:25:41;;;;;;;;;;;;;;;;;;5051297;28;19955;-61
2023/05/01 02:28:07;;;;;;;;;;;;;;;;;;5044463;28;19987;-62
2023/05/01 02:30:33;;;;;;;;;;;;;;;;;;5038364;28;19916;-60
2023/05/01 02:32:58;;;;;;;;;;;;;;;;;;5050435;28;19928;-61
2023/05/01 02:35:25;;;;;;;;;;;;;;;;;;5034184;28;19913;-60
2023/05/01 02:37:51;;;;;;;;;;;;;;;;;;5042098;28;19913;-60
2023/05/01 02:40:17;;;;;;;;;;;;;;;;;;5049944;28;19935;-60
2023/05/01 02:42:43;;;;;;;;;;;;;;;;;;5051388;28;19913;-60
2023/05/01 02:45:09;;;;;;;;;;;;;;;;;;5043478;28;19917;-60
2023/05/01 02:47:35;;;;;;;;;;;;;;;;;;5045178;28;21086;-62
2023/05/01 02:50:01;;;;;;;;;;;;;;;;;;5041825;28;19995;-60
2023/05/01 02:52:27;;;;;;;;;;;;;;;;;;5048171;28;20083;-62
2023/05/01 02:54:53;;;;;;;;;;;;;;;;;;5048178;28;19912;-63
2023/05/01 02:57:19;;;;;;;;;;;;;;;;;;5049118;28;19963;-62
2023/05/01 02:59:45;;;;;;;;;;;;;;;;;;5046528;28;19920;-62
2023/05/01 03:02:11;;;;;;;;;;;;;;;;;;5041459;28;19917;-62
2023/05/01 03:04:37;;;;;;;;;;;;;;;;;;5038274;28;20451;-63
2023/05/01 03:07:03;;;;;;;;;;;;;;;;;;5043301;28;19978;-62
2023/05/01 03:09:30;;;;;;;;;;;;;;;;;;5045423;28;19956;-63
2023/05/01 03:11:56;;;;;;;;;;;;;;;;;;5063455;28;19916;-62
2023/05/01 03:14:22;;;;;;;;;;;;;;;;;;5073689;28;19956;-62
2023/05/01 03:16:48;;;;;;;;;;;;;;;;;;5046852;28;19939;-62
2023/05/01 03:19:14;;;;;;;;;;;;;;;;;;5051306;28;19913;-62
2023/05/01 03:21:40;;;;;;;;;;;;;;;;;;5050005;28;19979;-62
2023/05/01 03:24:06;;;;;;;;;;;;;;;;;;5051494;28;19917;-62
2023/05/01 03:26:32;;;;;;;;;;;;;;;;;;5054626;28;20002;-60
2023/05/01 03:28:58;;;;;;;;;;;;;;;;;;5049991;28;19959;-62
2023/05/01 03:31:24;;;;;;;;;;;;;;;;;;5041298;28;19952;-63
2023/05/01 03:33:50;;;;;;;;;;;;;;;;;;5051441;28;19961;-62
2023/05/01 03:36:16;;;;;;;;;;;;;;;;;;5045331;28;19917;-62
2023/05/01 03:38:42;;;;;;;;;;;;;;;;;;5049058;28;19921;-62
2023/05/01 03:41:08;;;;;;;;;;;;;;;;;;5052193;28;19917;-62
2023/05/01 03:43:34;;;;;;;;;;;;;;;;;;5051841;28;19936;-62
2023/05/01 03:46:00;;;;;;;;;;;;;;;;;;5048516;28;19924;-63
2023/05/01 03:48:26;;;;;;;;;;;;;;;;;;5041259;28;19995;-62
2023/05/01 03:50:52;;;;;;;;;;;;;;;;;;5043676;28;19958;-62
2023/05/01 03:53:18;;;;;;;;;;;;;;;;;;5050489;28;20376;-60
2023/05/01 03:55:44;;;;;;;;;;;;;;;;;;5047051;28;19983;-62
2023/05/01 03:58:10;;;;;;;;;;;;;;;;;;5049423;28;19952;-60
2023/05/01 04:00:36;;;;;;;;;;;;;;;;;;5041450;28;20050;-62
2023/05/01 04:03:02;;;;;;;;;;;;;;;;;;5036317;28;19917;-60
2023/05/01 04:05:28;;;;;;;;;;;;;;;;;;5041105;28;19965;-63
2023/05/01 04:07:53;;;;;;;;;;;;;;;;;;5047412;28;19964;-63
2023/05/01 04:10:19;;;;;;;;;;;;;;;;;;5052430;28;19978;-63
2023/05/01 04:12:45;;;;;;;;;;;;;;;;;;5056109;28;19921;-62
2023/05/01 04:15:11;;;;;;;;;;;;;;;;;;5051257;28;20497;-63
2023/05/01 04:17:37;;;;;;;;;;;;;;;;;;5052222;28;20380;-60
2023/05/01 04:20:05;;;;;;;;;;;;;;;;;;5052550;28;19919;-62
2023/05/01 04:22:30;;;;;;;;;;;;;;;;;;5052612;28;20428;-62
2023/05/01 04:24:56;;;;;;;;;;;;;;;;;;5048670;28;20059;-62
2023/05/01 04:27:22;;;;;;;;;;;;;;;;;;5052266;28;19919;-62
2023/05/01 04:29:48;;;;;;;;;;;;;;;;;;5052575;28;19913;-62
2023/05/01 04:32:15;;;;;;;;;;;;;;;;;;5041889;28;20998;-62
2023/05/01 04:34:41;;;;;;;;;;;;;;;;;;5033465;28;20377;-62
2023/05/01 04:37:07;;;;;;;;;;;;;;;;;;5044756;28;19913;-62
2023/05/01 04:39:33;;;;;;;;;;;;;;;;;;5046385;28;20462;-62
2023/05/01 04:42:01;;;;;;;;;;;;;;;;;;5052665;28;19939;-62
2023/05/01 04:44:26;;;;;;;;;;;;;;;;;;5052071;28;19913;-62
2023/05/01 04:46:52;;;;;;;;;;;;;;;;;;5051495;28;19958;-62
2023/05/01 04:49:18;;;;;;;;;;;;;;;;;;5038455;28;21292;-62
2023/05/01 04:51:44;;;;;;;;;;;;;;;;;;5049205;28;19912;-62
2023/05/01 04:54:10;;;;;;;;;;;;;;;;;;5047201;28;19921;-62
2023/05/01 04:56:36;;;;;;;;;;;;;;;;;;5045410;28;19942;-62
2023/05/01 04:59:02;;;;;;;;;;;;;;;;;;5043037;28;19963;-62
2023/05/01 05:01:28;;;;;;;;;;;;;;;;;;5048474;28;19981;-62
2023/05/01 05:03:54;;;;;;;;;;;;;;;;;;5042832;28;20392;-62
2023/05/01 05:06:20;;;;;;;;;;;;;;;;;;5040713;28;19952;-62
2023/05/01 05:08:46;;;;;;;;;;;;;;;;;;5046396;28;19917;-62
2023/05/01 05:11:12;;;;;;;;;;;;;;;;;;5045619;28;19963;-62
2023/05/01 05:13:38;;;;;;;;;;;;;;;;;;5049658;28;19968;-62
2023/05/01 05:16:04;;;;;;;;;;;;;;;;;;5044752;28;20039;-62
2023/05/01 05:18:30;;;;;;;;;;;;;;;;;;5039193;28;19970;-62
2023/05/01 05:20:55;;;;;;;;;;;;;;;;;;5048006;28;19921;-62
2023/05/01 05:23:21;;;;;;;;;;;;;;;;;;5047561;28;19962;-62
2023/05/01 05:25:47;;;;;;;;;;;;;;;;;;5038706;28;19945;-62
2023/05/01 05:28:13;;;;;;;;;;;;;;;;;;5045457;28;19917;-62
2023/05/01 05:30:39;;;;;;;;;;;;;;;;;;5044932;28;20351;-62
2023/05/01 05:33:05;;;;;;;;;;;;;;;;;;5048826;28;19920;-62
2023/05/01 05:35:31;;;;;;;;;;;;;;;;;;5045026;28;19917;-62
2023/05/01 05:37:57;;;;;;;;;;;;;;;;;;5048933;28;19956;-62
2023/05/01 05:40:23;;;;;;;;;;;;;;;;;;5051372;28;20027;-62
2023/05/01 05:42:49;;;;;;;;;;;;;;;;;;5039111;28;20017;-62
2023/05/01 05:45:15;;;;;;;;;;;;;;;;;;5049359;28;19917;-62
2023/05/01 05:47:41;;;;;;;;;;;;;;;;;;5049469;28;20454;-62
2023/05/01 05:50:08;;;;;;;;;;;;;;;;;;5047214;28;20376;-62
2023/05/01 05:52:34;;;;;;;;;;;;;;;;;;5037317;28;20361;-62
2023/05/01 05:55:00;;;;;;;;;;;;;;;;;;5038652;28;19971;-62
2023/05/01 05:57:26;;;;;;;;;;;;;;;;;;5037906;28;19986;-62
2023/05/01 05:59:52;;;;;;;;;;;;;;;;;;5041195;28;19917;-62
2023/05/01 06:02:19;;;;;;;;;;;;;;;;;;5039724;28;19963;-62
2023/05/01 06:04:45;;;;;;;;;;;;;;;;;;5048639;28;19966;-62
2023/05/01 06:07:10;;;;;;;;;;;;;;;;;;5041213;28;19971;-62
2023/05/01 06:09:36;;;;;;;;;;;;;;;;;;5042755;28;19952;-63
2023/05/01 06:12:04;;;;;;;;;;;;;;;;;;5048304;28;20326;-62
2023/05/01 06:14:30;;;;;;;;;;;;;;;;;;5045862;28;19994;-62
2023/05/01 06:16:56;;;;;;;;;;;;;;;;;;5046554;28;20384;-62
2023/05/01 06:19:22;;;;;;;;;;;;;;;;;;5045482;28;19923;-62
2023/05/01 06:21:48;;;;;;;;;;;;;;;;;;5047650;28;20299;-62
2023/05/01 06:24:14;;;;;;;;;;;;;;;;;;5041562;28;20377;-62
2023/05/01 06:26:40;;;;;;;;;;;;;;;;;;5047401;28;19916;-62
2023/05/01 06:29:06;;;;;;;;;;;;;;;;;;5044885;28;19924;-62
2023/05/01 06:31:32;;;;;;;;;;;;;;;;;;5044024;28;19930;-62
2023/05/01 06:33:58;;;;;;;;;;;;;;;;;;5045785;28;20012;-62
2023/05/01 06:36:24;;;;;;;;;;;;;;;;;;5048566;28;19967;-62
2023/05/01 06:38:50;;;;;;;;;;;;;;;;;;5049294;28;19965;-62
2023/05/01 06:41:16;;;;;;;;;;;;;;;;;;5048373;28;20496;-62
2023/05/01 06:43:42;;;;;;;;;;;;;;;;;;5052290;28;19919;-62
2023/05/01 06:46:08;;;;;;;;;;;;;;;;;;5050477;28;19952;-62
2023/05/01 06:48:34;;;;;;;;;;;;;;;;;;5044627;28;19920;-63
2023/05/01 06:51:00;;;;;;;;;;;;;;;;;;5050652;28;19959;-64
2023/05/01 06:53:26;;;;;;;;;;;;;;;;;;5042905;28;20748;-62
2023/05/01 06:55:52;;;;;;;;;;;;;;;;;;5043286;28;19966;-63
2023/05/01 06:58:18;;;;;;;;;;;;;;;;;;5050378;28;19970;-62
2023/05/01 07:00:44;;;;;;;;;;;;;;;;;;5045121;28;21061;-62
2023/05/01 07:03:10;;;;;;;;;;;;;;;;;;5049645;28;19921;-62
2023/05/01 07:05:36;;;;;;;;;;;;;;;;;;5044234;28;20554;-62
2023/05/01 07:08:02;;;;;;;;;;;;;;;;;;5044721;28;19939;-62
2023/05/01 07:10:29;;;;;;;;;;;;;;;;;;5063686;28;19913;-62
2023/05/01 07:12:55;;;;;;;;;;;;;;;;;;5053108;28;19920;-62
2023/05/01 07:15:22;;;;;;;;;;;;;;;;;;5054725;28;20006;-62
2023/05/01 07:17:48;;;;;;;;;;;;;;;;;;5048791;28;19924;-62
2023/05/01 07:20:15;;;;;;;;;;;;;;;;;;5049643;28;20007;-62
2023/05/01 07:22:41;;;;;;;;;;;;;;;;;;5048010;28;20288;-63
2023/05/01 07:25:07;;;;;;;;;;;;;;;;;;5053936;28;19954;-62
2023/05/01 07:27:33;;;;;;;;;;;;;;;;;;5053823;28;19908;-62
2023/05/01 07:29:59;;;;;;;;;;;;;;;;;;5053637;28;20482;-63
2023/05/01 07:32:25;;;;;;;;;;;;;;;;;;5048394;28;19962;-63
2023/05/01 07:34:51;;;;;;;;;;;;;;;;;;5043577;28;19921;-62
2023/05/01 07:37:17;;;;;;;;;;;;;;;;;;5050572;28;19951;-62
2023/05/01 07:39:43;;;;;;;;;;;;;;;;;;5053129;28;20018;-63
2023/05/01 07:42:09;;;;;;;;;;;;;;;;;;5047452;28;19936;-62
2023/05/01 07:44:35;;;;;;;;;;;;;;;;;;5053273;28;19915;-62
2023/05/01 07:47:01;;;;;;;;;;;;;;;;;;5048056;28;20360;-62
2023/05/01 07:49:27;;;;;;;;;;;;;;;;;;5047679;28;19917;-62
2023/05/01 07:51:53;;;;;;;;;;;;;;;;;;5044687;28;19944;-62
2023/05/01 07:54:20;;;;;;;;;;;;;;;;;;5047845;28;20335;-62
2023/05/01 07:56:46;;;;;;;;;;;;;;;;;;5045597;28;19913;-62
2023/05/01 07:59:13;;;;;;;;;;;;;;;;;;5050639;28;19952;-62
2023/05/01 08:01:40;;;;;;;;;;;;;;;;;;5045795;28;20284;-62
2023/05/01 08:04:06;;;;;;;;;;;;;;;;;;5043159;28;20059;-62
2023/05/01 08:06:32;;;;;;;;;;;;;;;;;;5039468;28;19920;-62
2023/05/01 08:08:58;;;;;;;;;;;;;;;;;;5044193;28;19932;-62
2023/05/01 08:11:24;;;;;;;;;;;;;;;;;;5038824;28;19944;-62
2023/05/01 08:13:50;;;;;;;;;;;;;;;;;;5043302;28;19960;-62
2023/05/01 08:16:18;;;;;;;;;;;;;;;;;;5047833;28;19932;-62
2023/05/01 08:18:45;;;;;;;;;;;;;;;;;;5043619;28;19917;-62
2023/05/01 08:21:11;;;;;;;;;;;;;;;;;;5040452;28;20585;-62
2023/05/01 08:23:37;;;;;;;;;;;;;;;;;;5045439;28;19923;-62
2023/05/01 08:26:02;;;;;;;;;;;;;;;;;;5044965;28;19955;-62
2023/05/01 08:28:28;;;;;;;;;;;;;;;;;;5047410;28;20011;-63
2023/05/01 08:30:54;;;;;;;;;;;;;;;;;;5043042;28;19916;-62
2023/05/01 08:33:20;;;;;;;;;;;;;;;;;;5046449;28;20648;-62
2023/05/01 08:35:47;;;;;;;;;;;;;;;;;;5042754;28;19944;-62
2023/05/01 08:38:13;;;;;;;;;;;;;;;;;;5042122;28;19913;-62
2023/05/01 08:40:39;;;;;;;;;;;;;;;;;;5042729;28;19923;-61
2023/05/01 08:43:05;;;;;;;;;;;;;;;;;;5043956;28;19970;-62
2023/05/01 08:45:31;;;;;;;;;;;;;;;;;;5047923;28;19920;-62
2023/05/01 08:47:57;;;;;;;;;;;;;;;;;;5046531;28;19917;-62
2023/05/01 08:50:23;;;;;;;;;;;;;;;;;;5045996;28;19967;-62
2023/05/01 08:52:49;;;;;;;;;;;;;;;;;;5050637;28;19948;-63
2023/05/01 08:55:15;;;;;;;;;;;;;;;;;;5049235;28;19955;-62
2023/05/01 08:57:41;;;;;;;;;;;;;;;;;;5044202;28;19917;-62
2023/05/01 09:00:07;;;;;;;;;;;;;;;;;;5050693;28;20369;-62
2023/05/01 09:02:33;;;;;;;;;;;;;;;;;;5045994;28;20012;-62
2023/05/01 09:04:59;;;;;;;;;;;;;;;;;;5046461;28;20266;-62
2023/05/01 09:07:25;;;;;;;;;;;;;;;;;;5041027;28;19952;-62
2023/05/01 09:09:51;;;;;;;;;;;;;;;;;;5031920;28;19931;-62
2023/05/01 09:12:16;;;;;;;;;;;;;;;;;;5035196;28;19919;-62
2023/05/01 09:14:44;;;;;;;;;;;;;;;;;;5046033;28;19924;-62
2023/05/01 09:17:09;;;;;;;;;;;;;;;;;;5037268;28;20035;-62
2023/05/01 09:19:35;;;;;;;;;;;;;;;;;;5027976;28;19917;-62
2023/05/01 09:22:01;;;;;;;;;;;;;;;;;;5023233;28;19920;-62
2023/05/01 09:24:27;;;;;;;;;;;;;;;;;;5026045;28;19928;-62
2023/05/01 09:26:53;;;;;;;;;;;;;;;;;;5025171;28;19956;-62
2023/05/01 09:29:19;;;;;;;;;;;;;;;;;;5026027;28;19964;-62
2023/05/01 09:31:45;;;;;;;;;;;;;;;;;;5021676;28;19917;-62
2023/05/01 09:34:11;;;;;;;;;;;;;;;;;;5030499;28;20604;-62
2023/05/01 09:36:37;;;;;;;;;;;;;;;;;;5021323;28;19921;-62
2023/05/01 09:39:03;;;;;;;;;;;;;;;;;;5025081;28;20134;-62
2023/05/01 09:41:32;;;;;;;;;;;;;;;;;;5032748;28;20942;-60
2023/05/01 09:43:58;;;;;;;;;;;;;;;;;;5027418;28;20642;-62
2023/05/01 09:46:24;;;;;;;;;;;;;;;;;;5021699;28;20033;-62
2023/05/01 09:48:50;;;;;;;;;;;;;;;;;;5026521;28;20138;-62
2023/05/01 09:51:16;;;;;;;;;;;;;;;;;;5021624;28;19916;-62
2023/05/01 09:53:42;;;;;;;;;;;;;;;;;;5026902;28;20487;-62
2023/05/01 09:56:09;;;;;;;;;;;;;;;;;;5023946;28;19917;-62
2023/05/01 09:58:35;;;;;;;;;;;;;;;;;;5025153;28;20289;-62
2023/05/01 10:01:01;;;;;;;;;;;;;;;;;;5024617;28;19999;-60
2023/05/01 10:03:27;;;;;;;;;;;;;;;;;;5023294;28;20054;-62
2023/05/01 10:05:55;;;;;;;;;;;;;;;;;;5026969;28;20007;-62
2023/05/01 10:08:21;;;;;;;;;;;;;;;;;;5027375;28;19935;-62
2023/05/01 10:10:47;;;;;;;;;;;;;;;;;;5031338;28;19928;-62
2023/05/01 10:13:13;;;;;;;;;;;;;;;;;;5023634;28;19972;-62
2023/05/01 10:15:39;;;;;;;;;;;;;;;;;;5030269;28;19928;-60
2023/05/01 10:18:05;;;;;;;;;;;;;;;;;;5029576;28;20010;-62
2023/05/01 10:20:31;;;;;;;;;;;;;;;;;;5030284;28;19921;-62
2023/05/01 10:22:57;;;;;;;;;;;;;;;;;;5031085;28;20001;-62
2023/05/01 10:25:23;;;;;;;;;;;;;;;;;;5032051;28;20538;-62
2023/05/01 10:27:49;;;;;;;;;;;;;;;;;;5025036;28;19921;-62
2023/05/01 10:30:15;;;;;;;;;;;;;;;;;;5030721;28;19957;-62
2023/05/01 10:32:41;;;;;;;;;;;;;;;;;;5031110;28;20411;-62
2023/05/01 10:35:07;;;;;;;;;;;;;;;;;;5042662;28;19921;-62
2023/05/01 10:37:33;;;;;;;;;;;;;;;;;;5029261;28;19955;-62
2023/05/01 10:39:58;;;;;;;;;;;;;;;;;;5033609;28;19921;-62
2023/05/01 10:42:25;;;;;;;;;;;;;;;;;;5029880;28;20367;-62
2023/05/01 10:44:50;;;;;;;;;;;;;;;;;;5030053;28;20293;-62
2023/05/01 10:47:16;;;;;;;;;;;;;;;;;;5032816;28;19921;-62
2023/05/01 10:49:42;;;;;;;;;;;;;;;;;;5029995;28;19921;-62
2023/05/01 10:52:08;;;;;;;;;;;;;;;;;;5045708;28;19948;-62
2023/05/01 10:54:34;;;;;;;;;;;;;;;;;;5052678;28;19952;-61
2023/05/01 10:57:00;;;;;;;;;;;;;;;;;;5046388;28;19912;-62
2023/05/01 10:59:26;;;;;;;;;;;;;;;;;;5033117;28;19917;-62
2023/05/01 11:01:52;;;;;;;;;;;;;;;;;;5051196;28;20379;-62
2023/05/01 11:04:18;;;;;;;;;;;;;;;;;;5048071;28;20000;-62
2023/05/01 11:06:44;;;;;;;;;;;;;;;;;;5048214;28;20881;-62
2023/05/01 11:09:10;;;;;;;;;;;;;;;;;;5050458;28;19917;-61
2023/05/01 11:11:36;;;;;;;;;;;;;;;;;;5052187;28;19921;-61
2023/05/01 11:14:02;;;;;;;;;;;;;;;;;;5043925;28;20030;-62
2023/05/01 11:16:28;;;;;;;;;;;;;;;;;;5049750;28;19913;-61
2023/05/01 11:18:54;;;;;;;;;;;;;;;;;;5052085;28;19952;-62
2023/05/01 11:21:20;;;;;;;;;;;;;;;;;;5044193;28;19917;-62
2023/05/01 11:23:46;;;;;;;;;;;;;;;;;;5033554;28;20009;-61
2023/05/01 11:26:12;;;;;;;;;;;;;;;;;;5056181;28;19913;-62
2023/05/01 11:28:38;;;;;;;;;;;;;;;;;;5051720;28;19921;-62
2023/05/01 11:31:04;;;;;;;;;;;;;;;;;;5042481;28;19978;-62
2023/05/01 11:33:30;;;;;;;;;;;;;;;;;;5052412;28;19995;-61
2023/05/01 11:35:56;;;;;;;;;;;;;;;;;;5047698;28;19961;-62
2023/05/01 11:38:22;;;;;;;;;;;;;;;;;;5045064;28;20289;-62
2023/05/01 11:40:48;;;;;;;;;;;;;;;;;;5047689;28;19916;-62
2023/05/01 11:43:14;;;;;;;;;;;;;;;;;;5048197;28;19997;-60
2023/05/01 11:45:40;;;;;;;;;;;;;;;;;;5046643;28;19912;-61
2023/05/01 11:48:05;;;;;;;;;;;;;;;;;;5045301;28;19920;-60
2023/05/01 11:50:31;;;;;;;;;;;;;;;;;;5048233;28;19923;-60
2023/05/01 11:52:57;;;;;;;;;;;;;;;;;;5052059;28;19921;-62
2023/05/01 11:55:23;;;;;;;;;;;;;;;;;;5051174;28;20066;-60
2023/05/01 11:57:50;;;;;;;;;;;;;;;;;;5051838;28;19920;-60
2023/05/01 12:00:15;;;;;;;;;;;;;;;;;;5048655;28;20337;-60
2023/05/01 12:02:41;;;;;;;;;;;;;;;;;;5050776;28;19968;-62
2023/05/01 12:05:07;;;;;;;;;;;;;;;;;;5029862;28;20041;-60
2023/05/01 12:07:36;;;;;;;;;;;;;;;;;;5048575;28;19913;-60
2023/05/01 12:10:03;;;;;;;;;;;;;;;;;;5049532;28;20015;-61
2023/05/01 12:12:29;;;;;;;;;;;;;;;;;;5046149;28;20309;-60
2023/05/01 12:14:55;;;;;;;;;;;;;;;;;;5047106;28;19956;-60
2023/05/01 12:17:21;;;;;;;;;;;;;;;;;;5045382;28;19923;-61
2023/05/01 12:19:50;;;;;;;;;;;;;;;;;;5045954;28;20401;-60
2023/05/01 12:22:16;;;;;;;;;;;;;;;;;;5047240;28;19960;-60
2023/05/01 12:24:42;;;;;;;;;;;;;;;;;;5050709;28;19966;-60
2023/05/01 12:27:08;;;;;;;;;;;;;;;;;;5045287;28;20286;-60
2023/05/01 12:29:34;;;;;;;;;;;;;;;;;;5044479;28;21395;-60
2023/05/01 12:32:00;;;;;;;;;;;;;;;;;;5046515;28;19971;-60
2023/05/01 12:34:26;;;;;;;;;;;;;;;;;;5044282;28;19964;-60
2023/05/01 12:36:53;;;;;;;;;;;;;;;;;;5045734;28;20397;-60
2023/05/01 12:39:19;;;;;;;;;;;;;;;;;;5045574;28;19984;-60
2023/05/01 12:41:45;;;;;;;;;;;;;;;;;;5042628;28;19948;-60
2023/05/01 12:44:11;;;;;;;;;;;;;;;;;;5046063;28;20445;-60
2023/05/01 12:46:37;;;;;;;;;;;;;;;;;;5041259;28;20110;-60
2023/05/01 12:49:03;;;;;;;;;;;;;;;;;;5040348;28;19928;-60
2023/05/01 12:51:30;;;;;;;;;;;;;;;;;;5044027;28;19917;-62
2023/05/01 12:53:57;;;;;;;;;;;;;;;;;;5047806;28;19919;-62
2023/05/01 12:56:22;;;;;;;;;;;;;;;;;;5038640;28;20369;-63
2023/05/01 12:58:48;;;;;;;;;;;;;;;;;;5040286;28;19927;-60
2023/05/01 13:01:14;;;;;;;;;;;;;;;;;;5030325;28;20552;-60
2023/05/01 13:03:40;;;;;;;;;;;;;;;;;;5035945;28;19925;-60
2023/05/01 13:06:06;;;;;;;;;;;;;;;;;;5037563;28;19971;-62
2023/05/01 13:08:32;;;;;;;;;;;;;;;;;;5039483;28;19960;-60
2023/05/01 13:10:58;;;;;;;;;;;;;;;;;;5047219;28;20372;-60
2023/05/01 13:13:24;;;;;;;;;;;;;;;;;;5042611;28;20021;-62
2023/05/01 13:15:51;;;;;;;;;;;;;;;;;;5044707;28;20040;-62
2023/05/01 13:18:17;;;;;;;;;;;;;;;;;;5039403;28;19912;-60
2023/05/01 13:20:42;;;;;;;;;;;;;;;;;;5044673;28;20399;-60
2023/05/01 13:23:08;;;;;;;;;;;;;;;;;;5042109;28;19956;-62
2023/05/01 13:25:34;;;;;;;;;;;;;;;;;;5044410;28;20345;-60
2023/05/01 13:28:00;;;;;;;;;;;;;;;;;;5041977;28;20348;-60
2023/05/01 13:30:26;;;;;;;;;;;;;;;;;;5042434;28;19920;-60
2023/05/01 13:32:52;;;;;;;;;;;;;;;;;;5039568;28;19913;-61
2023/05/01 13:35:18;;;;;;;;;;;;;;;;;;5043050;28;19940;-60
2023/05/01 13:37:44;;;;;;;;;;;;;;;;;;5046480;28;19956;-60
2023/05/01 13:40:10;;;;;;;;;;;;;;;;;;5039559;28;20070;-60
2023/05/01 13:42:36;;;;;;;;;;;;;;;;;;5042369;28;19948;-60
2023/05/01 13:45:05;;;;;;;;;;;;;;;;;;5046540;28;20433;-60
2023/05/01 13:47:31;;;;;;;;;;;;;;;;;;5040680;28;20446;-60
2023/05/01 13:49:57;;;;;;;;;;;;;;;;;;5046184;28;19956;-60
2023/05/01 13:52:23;;;;;;;;;;;;;;;;;;5049110;28;19971;-60
2023/05/01 13:54:49;;;;;;;;;;;;;;;;;;5041420;28;19921;-60
2023/05/01 13:57:16;;;;;;;;;;;;;;;;;;5048289;28;21177;-60
2023/05/01 13:59:41;;;;;;;;;;;;;;;;;;5042705;28;20020;-60
2023/05/01 14:02:07;;;;;;;;;;;;;;;;;;5040121;28;20023;-60
2023/05/01 14:04:33;;;;;;;;;;;;;;;;;;5041531;28;19943;-60
2023/05/01 14:07:00;;;;;;;;;;;;;;;;;;5042651;28;20508;-60
2023/05/01 14:09:26;;;;;;;;;;;;;;;;;;5039131;28;19932;-60
2023/05/01 14:11:52;;;;;;;;;;;;;;;;;;5043292;28;19921;-60
2023/05/01 14:14:18;;;;;;;;;;;;;;;;;;5043483;28;19982;-60
2023/05/01 14:16:44;;;;;;;;;;;;;;;;;;5042203;28;19948;-60
2023/05/01 14:19:10;;;;;;;;;;;;;;;;;;5041583;28;19966;-60
2023/05/01 14:21:36;;;;;;;;;;;;;;;;;;5038454;28;20315;-60
2023/05/01 14:24:03;;;;;;;;;;;;;;;;;;5041064;28;20011;-60
2023/05/01 14:26:29;;;;;;;;;;;;;;;;;;5037823;28;20380;-62
2023/05/01 14:28:55;;;;;;;;;;;;;;;;;;5042782;28;20439;-62
2023/05/01 14:31:21;;;;;;;;;;;;;;;;;;5044871;28;19959;-62
2023/05/01 14:33:47;;;;;;;;;;;;;;;;;;5040167;28;19917;-62
2023/05/01 14:36:13;;;;;;;;;;;;;;;;;;5039979;28;21966;-62
2023/05/01 14:38:40;;;;;;;;;;;;;;;;;;5043532;28;19928;-62
2023/05/01 14:41:06;;;;;;;;;;;;;;;;;;5035631;28;19921;-62
2023/05/01 14:43:32;;;;;;;;;;;;;;;;;;5047747;28;19959;-62
2023/05/01 14:45:58;;;;;;;;;;;;;;;;;;5040208;28;19925;-62
2023/05/01 14:48:23;;;;;;;;;;;;;;;;;;5042510;28;19982;-62
2023/05/01 14:50:49;;;;;;;;;;;;;;;;;;5041627;28;20033;-62
2023/05/01 14:53:15;;;;;;;;;;;;;;;;;;5043248;28;20381;-63
2023/05/01 14:55:41;;;;;;;;;;;;;;;;;;5044129;28;19959;-62
2023/05/01 14:58:07;;;;;;;;;;;;;;;;;;5044573;28;19994;-62
2023/05/01 15:00:33;;;;;;;;;;;;;;;;;;5042621;28;19913;-62
2023/05/01 15:02:59;;;;;;;;;;;;;;;;;;5047069;28;19913;-62
2023/05/01 15:05:27;;;;;;;;;;;;;;;;;;5043053;28;19968;-62
2023/05/01 15:07:53;;;;;;;;;;;;;;;;;;5050649;28;20509;-62
2023/05/01 15:10:19;;;;;;;;;;;;;;;;;;5049168;28;19987;-62
2023/05/01 15:12:46;;;;;;;;;;;;;;;;;;5053867;28;20486;-61
2023/05/01 15:15:12;;;;;;;;;;;;;;;;;;5040724;28;19960;-62
2023/05/01 15:17:38;;;;;;;;;;;;;;;;;;5035513;28;19963;-62
2023/05/01 15:20:04;;;;;;;;;;;;;;;;;;5027332;28;20384;-62
2023/05/01 15:22:31;;;;;;;;;;;;;;;;;;5037476;28;21383;-62
2023/05/01 15:24:57;;;;;;;;;;;;;;;;;;5053184;28;20032;-62
2023/05/01 15:27:23;;;;;;;;;;;;;;;;;;5056897;28;19961;-62
2023/05/01 15:29:49;;;;;;;;;;;;;;;;;;5053174;28;19917;-62
2023/05/01 15:32:15;;;;;;;;;;;;;;;;;;5049630;28;20384;-62
2023/05/01 15:34:41;;;;;;;;;;;;;;;;;;5049085;28;19921;-62
2023/05/01 15:37:07;;;;;;;;;;;;;;;;;;5051005;28;20015;-62
2023/05/01 15:39:33;;;;;;;;;;;;;;;;;;5047830;28;20345;-62
2023/05/01 15:41:59;;;;;;;;;;;;;;;;;;5042010;28;19917;-60
2023/05/01 15:44:26;;;;;;;;;;;;;;;;;;5044917;28;19913;-60
2023/05/01 15:46:52;;;;;;;;;;;;;;;;;;5040418;28;19917;-60
2023/05/01 15:49:18;;;;;;;;;;;;;;;;;;5051555;28;19924;-60
2023/05/01 15:51:44;;;;;;;;;;;;;;;;;;5038539;28;19924;-62
2023/05/01 15:54:10;;;;;;;;;;;;;;;;;;5042698;28;20284;-62
2023/05/01 15:56:36;;;;;;;;;;;;;;;;;;5047891;28;19913;-62
2023/05/01 15:59:02;;;;;;;;;;;;;;;;;;5053456;28;20360;-61
2023/05/01 16:01:28;;;;;;;;;;;;;;;;;;5047444;28;20360;-61
2023/05/01 16:03:54;;;;;;;;;;;;;;;;;;5044243;28;19966;-61
2023/05/01 16:06:19;;;;;;;;;;;;;;;;;;5046610;28;19917;-62
2023/05/01 16:08:45;;;;;;;;;;;;;;;;;;5039632;28;19952;-61
2023/05/01 16:11:11;;;;;;;;;;;;;;;;;;5047192;28;20439;-62
2023/05/01 16:13:37;;;;;;;;;;;;;;;;;;5035714;28;19986;-61
2023/05/01 16:16:03;;;;;;;;;;;;;;;;;;5049849;28;19924;-62
2023/05/01 16:18:29;;;;;;;;;;;;;;;;;;5043263;28;20002;-63
2023/05/01 16:20:56;;;;;;;;;;;;;;;;;;5047771;28;19958;-61
2023/05/01 16:23:22;;;;;;;;;;;;;;;;;;5049338;28;19916;-61
2023/05/01 16:25:48;;;;;;;;;;;;;;;;;;5045837;28;19956;-61
2023/05/01 16:28:14;;;;;;;;;;;;;;;;;;5050329;28;19944;-61
2023/05/01 16:30:40;;;;;;;;;;;;;;;;;;5049360;28;20404;-61
2023/05/01 16:33:06;;;;;;;;;;;;;;;;;;5052569;28;20008;-61
2023/05/01 16:35:32;;;;;;;;;;;;;;;;;;5050617;28;20043;-61
2023/05/01 16:37:58;;;;;;;;;;;;;;;;;;5044703;28;20660;-62